createdAt,value
2019-05-14T00:00:21.874Z,101914.53
2019-05-14T00:01:26.552Z,101907.02
2019-05-14T00:02:31.774Z,101914.02
2019-05-14T00:03:36.323Z,101917.67
2019-05-14T00:04:42.378Z,101913.47
2019-05-14T00:05:46.909Z,101905.06
2019-05-14T00:06:52.013Z,101908.81
2019-05-14T00:07:56.577Z,101906.86
2019-05-14T00:09:01.516Z,101905.46
2019-05-14T00:10:07.779Z,101904.28
2019-05-14T00:11:13.013Z,101903.22
2019-05-14T00:12:17.784Z,101900.41
2019-05-14T00:13:22.326Z,101896.76
2019-05-14T00:14:37.239Z,101899.56
2019-05-14T00:15:33.028Z,101901.27
2019-05-14T00:16:37.388Z,101899.02
2019-05-14T00:17:42.159Z,101893.87
2019-05-14T00:18:46.802Z,101898.86
2019-05-14T00:20:05.527Z,101898.56
2019-05-14T00:20:57.588Z,101896.31
2019-05-14T00:22:02.245Z,101893.75
2019-05-14T00:23:06.612Z,101895.40
2019-05-14T00:24:11.514Z,101893.70
2019-05-14T00:25:16.386Z,101885.84
2019-05-14T00:26:21.589Z,101889.74
2019-05-14T00:27:26.198Z,101886.64
2019-05-14T00:28:31.710Z,101887.40
2019-05-14T00:29:36.631Z,101887.64
2019-05-14T00:30:42.266Z,101887.47
2019-05-14T00:31:47.140Z,101887.16
2019-05-14T00:32:52.147Z,101890.11
2019-05-14T00:33:56.648Z,101885.25
2019-05-14T00:35:02.149Z,101886.64
2019-05-14T00:36:06.628Z,101887.67
2019-05-14T00:37:11.706Z,101887.98
2019-05-14T00:38:16.245Z,101886.42
2019-05-14T00:39:21.383Z,101890.29
2019-05-14T00:40:25.913Z,101887.19
2019-05-14T00:41:31.228Z,101892.54
2019-05-14T00:42:35.696Z,101890.63
2019-05-14T00:43:41.574Z,101890.77
2019-05-14T00:44:54.282Z,101893.88
2019-05-14T00:45:52.797Z,101886.88
2019-05-14T00:46:58.202Z,101882.38
2019-05-14T00:48:02.826Z,101888.58
2019-05-14T00:49:07.212Z,101884.14
2019-05-14T00:50:12.054Z,101882.98
2019-05-14T00:51:16.563Z,101884.39
2019-05-14T00:52:22.221Z,101890.53
2019-05-14T00:53:26.718Z,101888.77
2019-05-14T00:54:32.231Z,101885.42
2019-05-14T00:55:36.700Z,101887.06
2019-05-14T00:56:41.861Z,101883.66
2019-05-14T00:57:46.561Z,101880.31
2019-05-14T00:58:52.381Z,101886.66
2019-05-14T00:59:56.716Z,101868.98
2019-05-14T01:01:01.775Z,101885.75
2019-05-14T01:02:07.573Z,101877.30
2019-05-14T01:03:12.302Z,101874.56
2019-05-14T01:04:16.692Z,101876.50
2019-05-14T01:05:21.652Z,101879.61
2019-05-14T01:06:26.096Z,101877.66
2019-05-14T01:07:31.656Z,101879.06
2019-05-14T01:08:36.249Z,101879.06
2019-05-14T01:09:42.086Z,101877.90
2019-05-14T01:10:46.719Z,101876.50
2019-05-14T01:11:51.437Z,101879.23
2019-05-14T01:12:55.837Z,101870.54
2019-05-14T01:14:01.768Z,101874.98
2019-05-14T01:15:10.806Z,101875.22
2019-05-14T01:16:13.776Z,101875.22
2019-05-14T01:17:18.165Z,101875.91
2019-05-14T01:18:22.734Z,101868.92
2019-05-14T01:19:27.115Z,101877.62
2019-05-14T01:20:32.100Z,101878.16
2019-05-14T01:21:36.504Z,101877.62
2019-05-14T01:22:42.284Z,101878.41
2019-05-14T01:23:46.787Z,101868.06
2019-05-14T01:24:52.196Z,101876.46
2019-05-14T01:25:56.737Z,101871.95
2019-05-14T01:27:01.826Z,101877.25
2019-05-14T01:28:06.287Z,101872.44
2019-05-14T01:29:12.163Z,101871.05
2019-05-14T01:30:16.697Z,101870.37
2019-05-14T01:31:22.066Z,101864.44
2019-05-14T01:32:26.564Z,101878.42
2019-05-14T01:33:31.820Z,101868.02
2019-05-14T01:34:36.521Z,101871.97
2019-05-14T01:35:42.066Z,101873.38
2019-05-14T01:36:46.740Z,101875.62
2019-05-14T01:37:52.190Z,101871.67
2019-05-14T01:38:57.726Z,101876.89
2019-05-14T01:40:04.205Z,101869.91
2019-05-14T01:41:08.573Z,101871.78
2019-05-14T01:42:13.248Z,101877.68
2019-05-14T01:43:17.765Z,101872.33
2019-05-14T01:44:22.353Z,101875.97
2019-05-14T01:45:28.345Z,101870.38
2019-05-14T01:46:33.221Z,101871.61
2019-05-14T01:47:37.582Z,101868.82
2019-05-14T01:48:42.143Z,101869.37
2019-05-14T01:49:46.588Z,101864.80
2019-05-14T01:50:52.066Z,101864.80
2019-05-14T01:51:56.736Z,101865.66
2019-05-14T01:53:01.406Z,101870.09
2019-05-14T01:54:05.749Z,101868.92
2019-05-14T01:55:11.448Z,101872.88
2019-05-14T01:56:15.888Z,101871.17
2019-05-14T01:57:21.966Z,101874.52
2019-05-14T01:58:26.534Z,101870.02
2019-05-14T01:59:32.217Z,101874.76
2019-05-14T02:00:36.708Z,101872.75
2019-05-14T02:01:41.755Z,101871.34
2019-05-14T02:02:46.152Z,101879.73
2019-05-14T02:03:51.795Z,101878.58
2019-05-14T02:04:56.376Z,101870.40
2019-05-14T02:06:01.396Z,101875.98
2019-05-14T02:07:05.980Z,101875.69
2019-05-14T02:08:12.115Z,101879.57
2019-05-14T02:09:16.572Z,101876.47
2019-05-14T02:10:22.247Z,101878.95
2019-05-14T02:11:26.697Z,101876.95
2019-05-14T02:12:31.637Z,101875.79
2019-05-14T02:13:37.132Z,101878.27
2019-05-14T02:14:42.377Z,101869.82
2019-05-14T02:15:46.984Z,101872.28
2019-05-14T02:16:52.520Z,101871.73
2019-05-14T02:17:56.879Z,101870.57
2019-05-14T02:19:01.550Z,101868.87
2019-05-14T02:20:06.281Z,101862.59
2019-05-14T02:21:11.797Z,101863.69
2019-05-14T02:22:16.284Z,101863.62
2019-05-14T02:23:22.657Z,101865.56
2019-05-14T02:24:26.944Z,101862.77
2019-05-14T02:25:32.171Z,101863.31
2019-05-14T02:26:36.626Z,101856.87
2019-05-14T02:27:41.542Z,101858.27
2019-05-14T02:28:45.916Z,101864.39
2019-05-14T02:29:51.844Z,101852.37
2019-05-14T02:31:02.657Z,101859.59
2019-05-14T02:32:02.786Z,101857.88
2019-05-14T02:33:09.252Z,101864.22
2019-05-14T02:34:13.374Z,101864.22
2019-05-14T02:35:20.181Z,101864.22
2019-05-14T02:36:24.100Z,101861.90
2019-05-14T02:37:30.068Z,101859.11
2019-05-14T02:38:34.847Z,101865.23
2019-05-14T02:39:41.053Z,101860.50
2019-05-14T02:40:45.515Z,101860.50
2019-05-14T02:41:50.141Z,101865.78
2019-05-14T02:42:54.621Z,101858.48
2019-05-14T02:43:59.496Z,101855.94
2019-05-14T02:45:08.935Z,101855.94
2019-05-14T02:46:17.177Z,101861.52
2019-05-14T02:47:19.719Z,101853.61
2019-05-14T02:48:24.362Z,101862.53
2019-05-14T02:49:29.960Z,101862.98
2019-05-14T02:50:34.662Z,101862.67
2019-05-14T02:51:39.360Z,101857.08
2019-05-14T02:52:43.778Z,101845.60
2019-05-14T02:53:49.858Z,101849.25
2019-05-14T02:54:54.297Z,101858.09
2019-05-14T02:55:59.495Z,101848.56
2019-05-14T02:57:04.918Z,101857.25
2019-05-14T02:58:10.099Z,101850.73
2019-05-14T02:59:14.628Z,101852.13
2019-05-14T03:00:19.494Z,101850.87
2019-05-14T03:01:23.923Z,101855.05
2019-05-14T03:02:29.698Z,101855.91
2019-05-14T03:03:34.239Z,101849.39
2019-05-14T03:04:39.766Z,101847.45
2019-05-14T03:05:44.311Z,101853.82
2019-05-14T03:06:49.875Z,101854.91
2019-05-14T03:07:54.505Z,101857.70
2019-05-14T03:09:00.049Z,101856.47
2019-05-14T03:10:09.620Z,101857.45
2019-05-14T03:11:13.753Z,101850.66
2019-05-14T03:12:19.362Z,101856.91
2019-05-14T03:13:24.127Z,101851.52
2019-05-14T03:14:30.113Z,101854.47
2019-05-14T03:15:34.822Z,101856.09
2019-05-14T03:16:40.756Z,101862.35
2019-05-14T03:17:45.461Z,101854.21
2019-05-14T03:18:50.440Z,101853.59
2019-05-14T03:19:55.208Z,101855.22
2019-05-14T03:21:00.814Z,101854.37
2019-05-14T03:22:05.816Z,101857.70
2019-05-14T03:23:18.046Z,101850.41
2019-05-14T03:24:19.445Z,101857.16
2019-05-14T03:25:22.874Z,101861.58
2019-05-14T03:26:29.453Z,101849.02
2019-05-14T03:27:33.617Z,101851.27
2019-05-14T03:28:39.932Z,101853.91
2019-05-14T03:29:44.667Z,101855.30
2019-05-14T03:30:51.975Z,101853.13
2019-05-14T03:31:55.400Z,101845.84
2019-05-14T03:33:02.625Z,101853.13
2019-05-14T03:34:06.027Z,101855.92
2019-05-14T03:35:13.504Z,101857.63
2019-05-14T03:36:23.953Z,101856.54
2019-05-14T03:37:24.412Z,101847.23
2019-05-14T03:38:30.226Z,101851.73
2019-05-14T03:39:35.192Z,101855.92
2019-05-14T03:40:40.119Z,101850.27
2019-05-14T03:41:45.217Z,101849.38
2019-05-14T03:42:49.567Z,101846.59
2019-05-14T03:43:55.213Z,101851.66
2019-05-14T03:44:59.957Z,101855.50
2019-05-14T03:46:05.513Z,101849.06
2019-05-14T03:47:10.660Z,101846.51
2019-05-14T03:48:18.989Z,101844.27
2019-05-14T03:49:22.253Z,101851.55
2019-05-14T03:50:29.686Z,101852.63
2019-05-14T03:51:34.156Z,101847.05
2019-05-14T03:52:39.915Z,101853.09
2019-05-14T03:53:59.965Z,101847.52
2019-05-14T03:54:51.119Z,101853.95
2019-05-14T03:55:55.593Z,101846.98
2019-05-14T03:57:00.592Z,101850.31
2019-05-14T03:58:05.056Z,101846.13
2019-05-14T03:59:10.161Z,101844.41
2019-05-14T04:00:14.646Z,101840.55
2019-05-14T04:01:20.157Z,101840.55
2019-05-14T04:02:24.904Z,101833.80
2019-05-14T04:03:30.794Z,101832.41
2019-05-14T04:04:35.155Z,101831.01
2019-05-14T04:05:40.264Z,101830.46
2019-05-14T04:06:44.849Z,101827.67
2019-05-14T04:07:50.440Z,101829.92
2019-05-14T04:08:55.550Z,101828.22
2019-05-14T04:10:00.142Z,101828.76
2019-05-14T04:11:04.669Z,101832.45
2019-05-14T04:12:10.311Z,101827.88
2019-05-14T04:13:15.506Z,101827.33
2019-05-14T04:14:20.373Z,101819.81
2019-05-14T04:15:24.966Z,101821.21
2019-05-14T04:16:29.606Z,101817.88
2019-05-14T04:17:38.820Z,101820.13
2019-05-14T04:18:41.902Z,101807.88
2019-05-14T04:19:49.260Z,101822.69
2019-05-14T04:20:52.705Z,101819.04
2019-05-14T04:21:59.883Z,101825.78
2019-05-14T04:23:03.344Z,101817.95
2019-05-14T04:24:09.742Z,101820.20
2019-05-14T04:25:13.961Z,101818.80
2019-05-14T04:26:20.181Z,101820.67
2019-05-14T04:27:29.585Z,101813.69
2019-05-14T04:28:34.633Z,101819.34
2019-05-14T04:29:41.597Z,101819.89
2019-05-14T04:30:49.120Z,101821.94
2019-05-14T04:31:52.312Z,101817.56
2019-05-14T04:32:59.356Z,101819.81
2019-05-14T04:34:04.941Z,101817.02
2019-05-14T04:35:09.696Z,101822.84
2019-05-14T04:36:14.713Z,101821.44
2019-05-14T04:37:20.112Z,101824.00
2019-05-14T04:38:24.963Z,101821.59
2019-05-14T04:39:31.508Z,101822.99
2019-05-14T04:40:36.085Z,101817.02
2019-05-14T04:41:40.520Z,101817.75
2019-05-14T04:42:45.175Z,101822.56
2019-05-14T04:43:50.424Z,101828.91
2019-05-14T04:44:55.077Z,101823.22
2019-05-14T04:45:59.591Z,101821.05
2019-05-14T04:47:22.846Z,101823.41
2019-05-14T04:48:27.132Z,101818.99
2019-05-14T04:49:19.905Z,101822.09
2019-05-14T04:50:25.698Z,101831.70
2019-05-14T04:51:31.545Z,101825.47
2019-05-14T04:52:36.008Z,101820.51
2019-05-14T04:53:40.834Z,101818.03
2019-05-14T04:54:45.318Z,101824.23
2019-05-14T04:55:49.971Z,101828.27
2019-05-14T04:56:54.410Z,101822.80
2019-05-14T04:57:59.320Z,101823.64
2019-05-14T04:59:04.312Z,101827.13
2019-05-14T05:00:12.323Z,101819.15
2019-05-14T05:01:16.161Z,101829.92
2019-05-14T05:02:20.713Z,101829.38
2019-05-14T05:03:25.239Z,101831.31
2019-05-14T05:04:30.355Z,101817.09
2019-05-14T05:05:39.116Z,101830.00
2019-05-14T05:06:42.091Z,101836.59
2019-05-14T05:07:49.190Z,101833.84
2019-05-14T05:08:52.786Z,101836.32
2019-05-14T05:09:59.312Z,101839.30
2019-05-14T05:11:03.477Z,101837.28
2019-05-14T05:12:09.093Z,101837.13
2019-05-14T05:13:14.937Z,101842.09
2019-05-14T05:14:20.396Z,101842.09
2019-05-14T05:15:25.729Z,101840.38
2019-05-14T05:16:30.091Z,101838.53
2019-05-14T05:17:44.178Z,101831.24
2019-05-14T05:18:40.690Z,101835.89
2019-05-14T05:19:46.046Z,101836.08
2019-05-14T05:20:50.921Z,101833.36
2019-05-14T05:21:55.621Z,101830.18
2019-05-14T05:23:00.081Z,101833.28
2019-05-14T05:24:04.817Z,101837.08
2019-05-14T05:25:09.568Z,101828.55
2019-05-14T05:26:14.136Z,101832.02
2019-05-14T05:27:18.658Z,101826.69
2019-05-14T05:28:23.327Z,101826.22
2019-05-14T05:29:28.594Z,101819.50
2019-05-14T05:30:34.897Z,101830.81
2019-05-14T05:31:39.273Z,101824.77
2019-05-14T05:32:43.797Z,101827.56
2019-05-14T05:33:48.958Z,101819.34
2019-05-14T05:34:53.849Z,101827.14
2019-05-14T05:35:59.276Z,101825.89
2019-05-14T05:37:04.560Z,101822.63
2019-05-14T05:38:09.038Z,101818.75
2019-05-14T05:39:13.648Z,101822.81
2019-05-14T05:40:19.732Z,101820.16
2019-05-14T05:41:24.611Z,101820.30
2019-05-14T05:42:29.514Z,101820.30
2019-05-14T05:43:34.183Z,101819.24
2019-05-14T05:44:39.320Z,101817.38
2019-05-14T05:45:44.248Z,101822.17
2019-05-14T05:46:49.372Z,101821.62
2019-05-14T05:47:58.187Z,101824.42
2019-05-14T05:49:00.392Z,101826.06
2019-05-14T05:50:08.789Z,101824.50
2019-05-14T05:51:13.262Z,101818.36
2019-05-14T05:52:19.169Z,101819.08
2019-05-14T05:53:23.612Z,101815.81
2019-05-14T05:54:29.189Z,101824.33
2019-05-14T05:55:34.005Z,101824.09
2019-05-14T05:56:38.907Z,101822.45
2019-05-14T05:57:43.411Z,101824.02
2019-05-14T05:58:48.992Z,101823.71
2019-05-14T05:59:53.534Z,101821.05
2019-05-14T06:00:58.995Z,101821.05
2019-05-14T06:02:03.710Z,101824.33
2019-05-14T06:03:10.895Z,101818.97
2019-05-14T06:04:14.513Z,101820.74
2019-05-14T06:05:19.480Z,101823.06
2019-05-14T06:06:23.888Z,101817.78
2019-05-14T06:07:28.864Z,101813.14
2019-05-14T06:08:33.501Z,101814.98
2019-05-14T06:09:38.409Z,101809.25
2019-05-14T06:10:43.122Z,101814.36
2019-05-14T06:11:48.764Z,101815.45
2019-05-14T06:12:53.316Z,101813.88
2019-05-14T06:13:58.882Z,101810.61
2019-05-14T06:15:05.392Z,101813.19
2019-05-14T06:16:09.933Z,101808.45
2019-05-14T06:17:14.332Z,101820.98
2019-05-14T06:18:21.975Z,101820.23
2019-05-14T06:19:25.054Z,101815.70
2019-05-14T06:20:29.606Z,101816.03
2019-05-14T06:21:34.005Z,101812.75
2019-05-14T06:22:38.823Z,101812.58
2019-05-14T06:23:43.241Z,101813.80
2019-05-14T06:24:48.674Z,101818.15
2019-05-14T06:25:54.153Z,101807.57
2019-05-14T06:26:58.899Z,101813.95
2019-05-14T06:28:03.483Z,101808.66
2019-05-14T06:29:08.566Z,101811.77
2019-05-14T06:30:13.269Z,101808.48
2019-05-14T06:31:19.292Z,101815.11
2019-05-14T06:32:24.952Z,101809.52
2019-05-14T06:33:29.525Z,101810.67
2019-05-14T06:34:34.150Z,101815.47
2019-05-14T06:35:39.621Z,101804.13
2019-05-14T06:36:44.420Z,101811.25
2019-05-14T06:37:49.146Z,101807.66
2019-05-14T06:38:53.589Z,101808.20
2019-05-14T06:39:58.523Z,101794.70
2019-05-14T06:41:03.002Z,101809.17
2019-05-14T06:42:08.821Z,101808.66
2019-05-14T06:43:13.299Z,101808.97
2019-05-14T06:44:18.729Z,101808.17
2019-05-14T06:45:23.330Z,101809.33
2019-05-14T06:46:28.391Z,101803.19
2019-05-14T06:47:33.031Z,101803.42
2019-05-14T06:48:39.575Z,101799.89
2019-05-14T06:49:43.718Z,101800.30
2019-05-14T06:50:50.453Z,101798.66
2019-05-14T06:51:54.885Z,101799.35
2019-05-14T06:52:59.426Z,101800.50
2019-05-14T06:54:04.723Z,101795.52
2019-05-14T06:55:09.277Z,101802.32
2019-05-14T06:56:13.644Z,101800.45
2019-05-14T06:57:18.725Z,101804.96
2019-05-14T06:58:23.083Z,101799.41
2019-05-14T06:59:28.801Z,101791.38
2019-05-14T07:00:33.335Z,101798.20
2019-05-14T07:01:38.464Z,101798.81
2019-05-14T07:02:44.314Z,101801.67
2019-05-14T07:03:49.362Z,101796.72
2019-05-14T07:04:53.828Z,101799.66
2019-05-14T07:05:59.549Z,101803.36
2019-05-14T07:07:05.189Z,101798.96
2019-05-14T07:08:09.773Z,101797.40
2019-05-14T07:09:14.207Z,101799.75
2019-05-14T07:10:19.593Z,101800.09
2019-05-14T07:11:25.365Z,101800.70
2019-05-14T07:12:29.990Z,101805.03
2019-05-14T07:13:34.556Z,101804.23
2019-05-14T07:14:39.156Z,101797.48
2019-05-14T07:15:43.465Z,101806.23
2019-05-14T07:16:48.647Z,101802.63
2019-05-14T07:17:53.250Z,101798.93
2019-05-14T07:18:59.080Z,101798.63
2019-05-14T07:20:05.220Z,101800.58
2019-05-14T07:21:09.757Z,101803.23
2019-05-14T07:22:14.154Z,101795.20
2019-05-14T07:23:19.426Z,101794.75
2019-05-14T07:24:23.985Z,101792.38
2019-05-14T07:25:28.819Z,101794.97
2019-05-14T07:26:34.286Z,101790.72
2019-05-14T07:27:39.453Z,101786.16
2019-05-14T07:28:43.895Z,101786.16
2019-05-14T07:29:49.347Z,101791.77
2019-05-14T07:30:54.895Z,101786.47
2019-05-14T07:31:59.484Z,101785.45
2019-05-14T07:33:04.871Z,101781.05
2019-05-14T07:34:09.408Z,101783.97
2019-05-14T07:35:14.252Z,101784.56
2019-05-14T07:36:19.172Z,101778.95
2019-05-14T07:37:24.675Z,101789.62
2019-05-14T07:38:29.231Z,101785.78
2019-05-14T07:39:33.582Z,101778.59
2019-05-14T07:40:39.427Z,101776.57
2019-05-14T07:41:43.783Z,101779.08
2019-05-14T07:42:48.846Z,101780.34
2019-05-14T07:43:53.348Z,101779.03
2019-05-14T07:44:58.898Z,101773.28
2019-05-14T07:46:03.508Z,101774.77
2019-05-14T07:47:09.371Z,101772.63
2019-05-14T07:48:13.813Z,101765.66
2019-05-14T07:49:19.392Z,101770.75
2019-05-14T07:50:23.897Z,101765.52
2019-05-14T07:51:28.747Z,101765.92
2019-05-14T07:52:33.109Z,101764.89
2019-05-14T07:53:41.605Z,101765.00
2019-05-14T07:54:43.750Z,101767.55
2019-05-14T07:55:49.306Z,101763.11
2019-05-14T07:56:53.946Z,101764.55
2019-05-14T07:57:59.034Z,101764.07
2019-05-14T07:59:03.460Z,101759.93
2019-05-14T08:00:09.108Z,101760.45
2019-05-14T08:01:13.532Z,101761.33
2019-05-14T08:02:19.595Z,101760.88
2019-05-14T08:03:24.196Z,101762.91
2019-05-14T08:04:29.167Z,101759.55
2019-05-14T08:05:33.578Z,101755.89
2019-05-14T08:06:39.363Z,101757.00
2019-05-14T08:07:44.843Z,101757.30
2019-05-14T08:08:49.614Z,101764.45
2019-05-14T08:09:54.988Z,101766.44
2019-05-14T08:11:01.871Z,101756.05
2019-05-14T08:12:06.360Z,101753.73
2019-05-14T08:13:10.969Z,101751.29
2019-05-14T08:14:15.395Z,101751.06
2019-05-14T08:15:22.507Z,101750.27
2019-05-14T08:16:28.603Z,101752.30
2019-05-14T08:17:32.536Z,101737.44
2019-05-14T08:18:39.310Z,101743.38
2019-05-14T08:19:43.128Z,101749.71
2019-05-14T08:20:48.631Z,101743.30
2019-05-14T08:21:53.441Z,101743.59
2019-05-14T08:22:58.306Z,101740.32
2019-05-14T08:24:02.916Z,101741.48
2019-05-14T08:25:09.353Z,101735.02
2019-05-14T08:26:15.030Z,101736.16
2019-05-14T08:27:19.391Z,101733.70
2019-05-14T08:28:24.143Z,101736.06
2019-05-14T08:29:28.757Z,101735.80
2019-05-14T08:30:33.455Z,101736.36
2019-05-14T08:31:38.464Z,101730.47
2019-05-14T08:32:43.025Z,101731.05
2019-05-14T08:33:48.877Z,101735.27
2019-05-14T08:34:53.748Z,101733.30
2019-05-14T08:35:58.386Z,101730.56
2019-05-14T08:37:04.272Z,101727.80
2019-05-14T08:38:12.019Z,101730.08
2019-05-14T08:39:18.392Z,101720.89
2019-05-14T08:40:21.662Z,101719.25
2019-05-14T08:41:28.649Z,101721.05
2019-05-14T08:42:33.965Z,101724.70
2019-05-14T08:43:39.667Z,101721.11
2019-05-14T08:44:44.297Z,101721.77
2019-05-14T08:45:48.988Z,101717.00
2019-05-14T08:46:53.382Z,101717.08
2019-05-14T08:47:58.664Z,101712.63
2019-05-14T08:49:04.934Z,101719.17
2019-05-14T08:50:09.524Z,101721.77
2019-05-14T08:51:14.024Z,101718.41
2019-05-14T08:52:19.206Z,101712.00
2019-05-14T08:53:23.867Z,101725.53
2019-05-14T08:54:28.640Z,101717.36
2019-05-14T08:55:32.974Z,101710.89
2019-05-14T08:56:38.884Z,101712.32
2019-05-14T08:57:44.460Z,101714.86
2019-05-14T08:58:49.600Z,101714.00
2019-05-14T08:59:54.156Z,101707.50
2019-05-14T09:00:58.967Z,101706.67
2019-05-14T09:02:06.540Z,101696.45
2019-05-14T09:03:09.605Z,101705.28
2019-05-14T09:04:13.982Z,101703.95
2019-05-14T09:05:18.692Z,101703.71
2019-05-14T09:06:23.206Z,101700.95
2019-05-14T09:07:28.976Z,101708.00
2019-05-14T09:08:33.457Z,101705.48
2019-05-14T09:09:38.300Z,101699.00
2019-05-14T09:10:42.916Z,101693.09
2019-05-14T09:11:50.398Z,101699.86
2019-05-14T09:12:53.595Z,101690.59
2019-05-14T09:13:59.462Z,101697.69
2019-05-14T09:15:05.843Z,101685.05
2019-05-14T09:16:10.507Z,101694.34
2019-05-14T09:17:15.066Z,101686.50
2019-05-14T09:18:19.555Z,101684.55
2019-05-14T09:19:23.987Z,101684.00
2019-05-14T09:20:29.035Z,101683.16
2019-05-14T09:21:33.532Z,101685.69
2019-05-14T09:22:39.804Z,101683.72
2019-05-14T09:23:44.424Z,101682.66
2019-05-14T09:24:49.339Z,101684.07
2019-05-14T09:25:54.757Z,101681.83
2019-05-14T09:26:59.505Z,101682.45
2019-05-14T09:28:04.774Z,101675.41
2019-05-14T09:29:19.576Z,101677.15
2019-05-14T09:30:15.360Z,101678.60
2019-05-14T09:31:20.193Z,101674.37
2019-05-14T09:32:24.626Z,101679.50
2019-05-14T09:33:29.802Z,101677.25
2019-05-14T09:34:35.274Z,101678.10
2019-05-14T09:35:39.815Z,101675.60
2019-05-14T09:36:44.180Z,101680.68
2019-05-14T09:37:51.366Z,101678.75
2019-05-14T09:38:54.907Z,101678.19
2019-05-14T09:39:59.510Z,101667.75
2019-05-14T09:41:10.522Z,101675.37
2019-05-14T09:42:10.819Z,101673.14
2019-05-14T09:43:18.116Z,101671.17
2019-05-14T09:44:22.493Z,101662.99
2019-05-14T09:45:28.264Z,101668.34
2019-05-14T09:46:32.932Z,101666.12
2019-05-14T09:47:38.964Z,101667.53
2019-05-14T09:48:43.899Z,101666.69
2019-05-14T09:49:49.473Z,101658.78
2019-05-14T09:50:54.036Z,101656.84
2019-05-14T09:51:58.570Z,101661.34
2019-05-14T09:53:03.189Z,101655.98
2019-05-14T09:54:08.526Z,101661.64
2019-05-14T09:55:13.282Z,101652.32
2019-05-14T09:56:18.715Z,101652.91
2019-05-14T09:57:23.529Z,101663.92
2019-05-14T09:58:28.982Z,101663.95
2019-05-14T09:59:33.793Z,101658.30
2019-05-14T10:00:39.098Z,101648.97
2019-05-14T10:01:44.067Z,101654.63
2019-05-14T10:02:49.442Z,101655.17
2019-05-14T10:03:54.203Z,101652.38
2019-05-14T10:04:59.837Z,101652.08
2019-05-14T10:06:05.462Z,101656.59
2019-05-14T10:07:09.903Z,101663.10
2019-05-14T10:08:14.584Z,101659.13
2019-05-14T10:09:18.940Z,101654.88
2019-05-14T10:10:23.563Z,101660.83
2019-05-14T10:11:28.779Z,101645.01
2019-05-14T10:12:42.546Z,101654.88
2019-05-14T10:13:41.043Z,101654.88
2019-05-14T10:14:48.535Z,101659.97
2019-05-14T10:15:52.202Z,101658.81
2019-05-14T10:16:58.355Z,101652.33
2019-05-14T10:18:03.053Z,101647.22
2019-05-14T10:19:07.654Z,101642.68
2019-05-14T10:20:12.012Z,101648.06
2019-05-14T10:21:18.992Z,101646.34
2019-05-14T10:22:22.721Z,101640.98
2019-05-14T10:23:28.410Z,101636.72
2019-05-14T10:24:33.032Z,101648.29
2019-05-14T10:25:40.180Z,101640.64
2019-05-14T10:26:43.885Z,101648.30
2019-05-14T10:27:48.704Z,101648.30
2019-05-14T10:28:54.001Z,101637.80
2019-05-14T10:29:58.958Z,101639.77
2019-05-14T10:31:03.857Z,101637.47
2019-05-14T10:32:09.042Z,101634.91
2019-05-14T10:33:15.039Z,101641.67
2019-05-14T10:34:19.900Z,101642.27
2019-05-14T10:35:25.120Z,101635.74
2019-05-14T10:36:30.191Z,101635.75
2019-05-14T10:37:35.693Z,101642.26
2019-05-14T10:38:40.230Z,101632.06
2019-05-14T10:39:44.804Z,101635.42
2019-05-14T10:40:49.434Z,101630.31
2019-05-14T10:41:53.789Z,101628.28
2019-05-14T10:42:58.366Z,101618.66
2019-05-14T10:44:04.528Z,101618.08
2019-05-14T10:45:12.673Z,101612.97
2019-05-14T10:46:15.171Z,101615.73
2019-05-14T10:47:19.713Z,101610.06
2019-05-14T10:48:24.460Z,101608.34
2019-05-14T10:49:29.955Z,101615.95
2019-05-14T10:50:44.814Z,101615.63
2019-05-14T10:51:40.905Z,101613.91
2019-05-14T10:52:45.341Z,101611.91
2019-05-14T10:53:50.162Z,101612.50
2019-05-14T10:54:56.149Z,101608.25
2019-05-14T10:56:00.844Z,101608.23
2019-05-14T10:57:05.261Z,101609.05
2019-05-14T10:58:09.868Z,101605.95
2019-05-14T10:59:14.475Z,101599.96
2019-05-14T11:00:19.776Z,101604.27
2019-05-14T11:01:24.201Z,101602.00
2019-05-14T11:02:29.280Z,101605.67
2019-05-14T11:03:33.682Z,101607.64
2019-05-14T11:04:39.096Z,101609.63
2019-05-14T11:05:43.790Z,101605.95
2019-05-14T11:06:49.106Z,101600.28
2019-05-14T11:07:53.624Z,101600.30
2019-05-14T11:08:58.171Z,101603.45
2019-05-14T11:10:02.666Z,101596.92
2019-05-14T11:11:10.265Z,101604.33
2019-05-14T11:12:13.535Z,101588.48
2019-05-14T11:13:18.940Z,101598.37
2019-05-14T11:14:23.654Z,101589.63
2019-05-14T11:15:28.537Z,101599.23
2019-05-14T11:16:33.141Z,101591.31
2019-05-14T11:17:40.480Z,101597.56
2019-05-14T11:18:43.928Z,101588.16
2019-05-14T11:19:48.468Z,101589.26
2019-05-14T11:20:52.835Z,101587.80
2019-05-14T11:21:57.897Z,101585.48
2019-05-14T11:23:02.426Z,101590.81
2019-05-14T11:24:09.434Z,101582.80
2019-05-14T11:25:13.177Z,101587.89
2019-05-14T11:26:20.309Z,101583.02
2019-05-14T11:27:24.669Z,101583.05
2019-05-14T11:28:29.397Z,101580.54
2019-05-14T11:29:33.890Z,101577.17
2019-05-14T11:30:39.241Z,101575.16
2019-05-14T11:31:43.691Z,101571.75
2019-05-14T11:32:49.189Z,101576.57
2019-05-14T11:33:53.768Z,101569.73
2019-05-14T11:34:59.393Z,101567.70
2019-05-14T11:36:03.763Z,101568.82
2019-05-14T11:37:08.663Z,101572.80
2019-05-14T11:38:28.802Z,101572.29
2019-05-14T11:39:19.639Z,101575.66
2019-05-14T11:40:24.761Z,101571.41
2019-05-14T11:41:29.572Z,101568.58
2019-05-14T11:42:34.036Z,101564.61
2019-05-14T11:43:39.796Z,101557.19
2019-05-14T11:44:44.514Z,101564.91
2019-05-14T11:45:49.025Z,101571.39
2019-05-14T11:46:57.826Z,101556.34
2019-05-14T11:47:59.731Z,101558.00
2019-05-14T11:49:04.934Z,101555.95
2019-05-14T11:50:10.063Z,101546.27
2019-05-14T11:51:14.593Z,101544.81
2019-05-14T11:52:19.164Z,101543.09
2019-05-14T11:53:23.670Z,101544.73
2019-05-14T11:54:29.193Z,101535.02
2019-05-14T11:55:33.717Z,101539.22
2019-05-14T11:56:41.948Z,101540.91
2019-05-14T11:57:44.451Z,101542.59
2019-05-14T11:58:49.065Z,101540.87
2019-05-14T11:59:53.760Z,101540.91
2019-05-14T12:00:58.598Z,101542.59
2019-05-14T12:02:03.026Z,101542.90
2019-05-14T12:03:09.245Z,101533.64
2019-05-14T12:04:13.641Z,101536.31
2019-05-14T12:05:18.945Z,101527.61
2019-05-14T12:06:23.649Z,101529.88
2019-05-14T12:07:28.188Z,101531.02
2019-05-14T12:08:32.679Z,101529.03
2019-05-14T12:09:39.145Z,101529.30
2019-05-14T12:10:43.834Z,101532.09
2019-05-14T12:11:48.453Z,101528.66
2019-05-14T12:12:52.813Z,101522.75
2019-05-14T12:13:59.911Z,101524.78
2019-05-14T12:15:04.585Z,101526.53
2019-05-14T12:16:09.127Z,101520.88
2019-05-14T12:17:13.606Z,101517.70
2019-05-14T12:18:18.685Z,101524.78
2019-05-14T12:19:23.148Z,101526.70
2019-05-14T12:20:29.684Z,101516.71
2019-05-14T12:21:33.748Z,101516.98
2019-05-14T12:22:39.261Z,101523.14